createdAt,value
2023-05-24T00:01:14.404Z,101862.84
2023-05-24T00:03:42.524Z,101865.56
2023-05-24T00:06:11.189Z,101866.59
2023-05-24T00:08:39.448Z,101868.28
2023-05-24T00:11:07.429Z,101879.16
2023-05-24T00:13:36.820Z,101869.06
2023-05-24T00:16:05.088Z,101870.34
2023-05-24T00:18:33.392Z,101878.31
2023-05-24T00:21:01.469Z,101849.50
2023-05-24T00:23:29.400Z,101862.53
2023-05-24T00:25:57.328Z,101841.47
2023-05-24T00:28:25.568Z,101869.50
2023-05-24T00:30:54.909Z,101876.81
2023-05-24T00:33:23.447Z,101863.22
2023-05-24T00:35:54.506Z,101840.03
2023-05-24T00:38:22.768Z,101867.81
2023-05-24T00:40:50.996Z,101869.69
2023-05-24T00:43:19.238Z,101866.97
2023-05-24T00:45:47.265Z,101867.56
2023-05-24T00:48:16.950Z,101868.00
2023-05-24T00:50:44.935Z,101874.28
2023-05-24T00:53:12.835Z,101825.94
2023-05-24T00:55:40.808Z,101867.19
2023-05-24T00:58:09.058Z,101864.66
2023-05-24T01:03:29.367Z,101855.47
2023-05-24T01:05:58.151Z,101854.63
2023-05-24T01:08:40.019Z,101865.50
2023-05-24T01:11:12.342Z,101860.06
2023-05-24T01:13:47.510Z,101837.53
2023-05-24T01:16:17.965Z,101857.53
2023-05-24T01:18:49.508Z,101858.38
2023-05-24T01:21:26.109Z,101811.69
2023-05-24T01:23:57.934Z,101854.81
2023-05-24T01:26:39.491Z,101856.69
2023-05-24T01:29:09.101Z,101852.28
2023-05-24T01:31:37.346Z,101848.06
2023-05-24T01:34:05.356Z,101854.16
2023-05-24T01:36:33.379Z,101850.41
2023-05-24T01:39:01.669Z,101852.28
2023-05-24T01:41:36.706Z,101848.72
2023-05-24T01:44:08.968Z,101849.53
2023-05-24T01:46:37.757Z,101850.41
2023-05-24T01:49:12.224Z,101848.72
2023-05-24T01:51:42.784Z,101819.91
2023-05-24T01:54:10.818Z,101840.75
2023-05-24T01:56:38.984Z,101844.31
2023-05-24T01:59:08.605Z,101835.31
2023-05-24T02:01:36.625Z,101845.16
2023-05-24T02:04:04.602Z,101839.72
2023-05-24T02:06:32.575Z,101836.16
2023-05-24T02:09:00.820Z,101834.28
2023-05-24T02:11:28.784Z,101835.31
2023-05-24T02:13:56.881Z,101840.75
2023-05-24T02:16:26.999Z,101841.78
2023-05-24T02:18:55.408Z,101838.03
2023-05-24T02:21:23.569Z,101849.09
2023-05-24T02:23:51.492Z,101840.94
2023-05-24T02:26:19.603Z,101836.53
2023-05-24T02:28:48.286Z,101841.13
2023-05-24T02:31:16.356Z,101832.13
2023-05-24T02:33:45.711Z,101825.66
2023-05-24T02:36:13.715Z,101824.81
2023-05-24T02:38:41.958Z,101828.59
2023-05-24T02:41:11.918Z,101837.56
2023-05-24T02:43:39.892Z,101834.03
2023-05-24T02:46:07.846Z,101828.59
2023-05-24T02:48:36.697Z,101832.13
2023-05-24T02:51:06.187Z,101822.31
2023-05-24T02:53:34.209Z,101830.47
2023-05-24T02:56:02.161Z,101829.63
2023-05-24T02:58:30.639Z,101827.75
2023-05-24T03:03:34.478Z,101834.22
2023-05-24T03:06:02.474Z,101829.63
2023-05-24T03:08:31.815Z,101833.19
2023-05-24T03:10:59.839Z,101838.63
2023-05-24T03:13:27.824Z,101834.22
2023-05-24T03:15:55.850Z,101831.50
2023-05-24T03:18:24.118Z,101837.78
2023-05-24T03:20:52.171Z,101829.63
2023-05-24T03:23:20.083Z,101834.03
2023-05-24T03:25:49.585Z,101827.75
2023-05-24T03:28:17.882Z,101823.97
2023-05-24T03:30:45.998Z,101823.16
2023-05-24T03:33:14.024Z,101826.69
2023-05-24T03:35:42.110Z,101824.81
2023-05-24T03:38:10.339Z,101820.81
2023-05-24T03:40:38.582Z,101826.69
2023-05-24T03:43:07.945Z,101826.69
2023-05-24T03:45:39.886Z,101831.09
2023-05-24T03:48:08.191Z,101827.53
2023-05-24T03:50:36.440Z,101833.81
2023-05-24T03:53:04.428Z,101832.97
2023-05-24T03:55:32.442Z,101837.56
2023-05-24T03:58:00.436Z,101846.56
2023-05-24T04:00:30.138Z,101841.97
2023-05-24T04:02:58.230Z,101844.06
2023-05-24T04:05:29.715Z,101841.34
2023-05-24T04:07:57.638Z,101837.56
2023-05-24T04:10:25.856Z,101840.28
2023-05-24T04:12:53.753Z,101846.78
2023-05-24T04:15:23.035Z,101847.63
2023-05-24T04:17:55.127Z,101847.63
2023-05-24T04:20:25.440Z,101847.63
2023-05-24T04:22:53.674Z,101847.63
2023-05-24T04:25:22.075Z,101854.72
2023-05-24T04:27:50.423Z,101851.38
2023-05-24T04:30:18.891Z,101854.94
2023-05-24T04:32:47.509Z,101860.38
2023-05-24T04:35:16.923Z,101860.38
2023-05-24T04:37:45.098Z,101862.25
2023-05-24T04:40:14.024Z,101865.84
2023-05-24T04:42:41.953Z,101871.28
2023-05-24T04:45:10.701Z,101871.28
2023-05-24T04:47:38.744Z,101872.94
2023-05-24T04:50:08.259Z,101874.84
2023-05-24T04:52:37.583Z,101884.66
2023-05-24T04:55:06.156Z,101872.94
2023-05-24T04:57:34.202Z,101884.66
2023-05-24T05:02:48.579Z,101885.50
2023-05-24T05:05:16.644Z,101897.22
2023-05-24T05:07:45.944Z,101889.91
2023-05-24T05:10:13.931Z,101894.50
2023-05-24T05:12:41.912Z,101894.50
2023-05-24T05:15:11.224Z,101897.22
2023-05-24T05:17:39.604Z,101890.94
2023-05-24T05:20:08.860Z,101898.06
2023-05-24T05:22:36.959Z,101904.53
2023-05-24T05:25:07.353Z,101908.09
2023-05-24T05:27:35.644Z,101892.81
2023-05-24T05:30:03.686Z,101910.81
2023-05-24T05:32:31.786Z,101906.22
2023-05-24T05:34:59.884Z,101894.44
2023-05-24T05:37:28.081Z,101909.97
2023-05-24T05:39:56.087Z,101912.50
2023-05-24T05:42:25.637Z,101894.25
2023-05-24T05:44:53.653Z,101908.94
2023-05-24T05:47:22.003Z,101895.94
2023-05-24T05:49:49.991Z,101902.47
2023-05-24T05:52:18.155Z,101900.59
2023-05-24T05:54:46.160Z,101898.91
2023-05-24T05:57:16.335Z,101867.78
2023-05-24T05:59:46.082Z,101887.78
2023-05-24T06:02:14.108Z,101890.56
2023-05-24T06:04:42.127Z,101895.16
2023-05-24T06:07:10.413Z,101903.31
2023-05-24T06:09:38.355Z,101892.44
2023-05-24T06:12:07.025Z,101889.50
2023-05-24T06:14:38.390Z,101885.97
2023-05-24T06:17:07.981Z,101887.00
2023-05-24T06:19:36.390Z,101884.91
2023-05-24T06:22:04.598Z,101886.78
2023-05-24T06:24:34.680Z,101884.91
2023-05-24T06:27:05.174Z,101883.88
2023-05-24T06:29:34.815Z,101885.75
2023-05-24T06:32:02.896Z,101879.47
2023-05-24T06:34:32.195Z,101881.34
2023-05-24T06:37:00.177Z,101890.16
2023-05-24T06:39:28.193Z,101897.47
2023-05-24T06:41:56.246Z,101906.50
2023-05-24T06:44:30.958Z,101893.72
2023-05-24T06:46:58.998Z,101897.28
2023-05-24T06:49:27.327Z,101902.66
2023-05-24T06:51:56.751Z,101897.47
2023-05-24T06:54:25.633Z,101910.06
2023-05-24T06:56:53.620Z,101900.19
2023-05-24T06:59:21.593Z,101890.09
2023-05-24T07:01:51.687Z,101901.03
2023-05-24T07:04:20.317Z,101882.53
2023-05-24T07:06:48.331Z,101898.31
2023-05-24T07:09:17.677Z,101897.28
2023-05-24T07:11:45.634Z,101900.19
2023-05-24T07:14:13.920Z,101899.19
2023-05-24T07:16:41.936Z,101895.41
2023-05-24T07:19:09.924Z,101900.00
2023-05-24T07:21:38.258Z,101896.59
2023-05-24T07:24:07.051Z,101912.78
2023-05-24T07:26:36.678Z,101879.72
2023-05-24T07:29:04.691Z,101910.06
2023-05-24T07:31:34.821Z,101905.66
2023-05-24T07:34:02.773Z,101919.06
2023-05-24T07:36:34.816Z,101917.19
2023-05-24T07:39:04.877Z,101875.34
2023-05-24T07:41:33.562Z,101908.75
2023-05-24T07:44:03.290Z,101914.66
2023-05-24T07:46:31.242Z,101911.75
2023-05-24T07:48:59.419Z,101912.59
2023-05-24T07:51:27.665Z,101910.72
2023-05-24T07:53:55.995Z,101912.38
2023-05-24T07:56:26.442Z,101900.19
2023-05-24T07:58:59.304Z,101892.22
2023-05-24T08:01:28.913Z,101896.91
2023-05-24T08:03:57.730Z,101902.34
2023-05-24T08:06:25.938Z,101899.44
2023-05-24T08:08:53.972Z,101895.88
2023-05-24T08:11:21.924Z,101902.34
2023-05-24T08:13:50.203Z,101899.19
2023-05-24T08:16:19.312Z,101914.91
2023-05-24T08:18:48.615Z,101916.59
2023-05-24T08:21:16.572Z,101904.63
2023-05-24T08:23:44.823Z,101904.88
2023-05-24T08:26:12.755Z,101912.19
2023-05-24T08:28:40.754Z,101918.47
2023-05-24T08:31:08.851Z,101915.75
2023-05-24T08:33:38.560Z,101917.63
2023-05-24T08:36:08.370Z,101917.63
2023-05-24T08:38:36.394Z,101923.06
2023-05-24T08:41:06.936Z,101920.34
2023-05-24T08:43:35.370Z,101917.63
2023-05-24T08:46:03.418Z,101920.16
2023-05-24T08:48:31.684Z,101913.88
2023-05-24T08:51:00.480Z,101898.50
2023-05-24T08:53:29.848Z,101908.44
2023-05-24T08:55:57.813Z,101905.53
2023-05-24T08:58:25.966Z,101896.53
2023-05-24T09:00:53.935Z,101892.78
2023-05-24T09:03:22.299Z,101884.78
2023-05-24T09:05:50.314Z,101889.22
2023-05-24T09:08:20.463Z,101887.69
2023-05-24T09:10:55.318Z,101883.75
2023-05-24T09:13:24.727Z,101887.50
2023-05-24T09:15:52.736Z,101885.41
2023-05-24T09:18:21.100Z,101892.78
2023-05-24T09:20:49.258Z,101897.16
2023-05-24T09:23:17.685Z,101894.44
2023-05-24T09:25:46.130Z,101898.00
2023-05-24T09:28:16.307Z,101895.28
2023-05-24T09:30:44.777Z,101887.31
2023-05-24T09:33:13.627Z,101887.13
2023-05-24T09:35:43.544Z,101889.84
2023-05-24T09:38:18.229Z,101882.50
2023-05-24T09:40:47.925Z,101886.09
2023-05-24T09:43:17.297Z,101880.63
2023-05-24T09:45:46.680Z,101879.78
2023-05-24T09:48:15.353Z,101881.66
2023-05-24T09:50:45.748Z,101875.78
2023-05-24T09:53:14.209Z,101880.81
2023-05-24T09:55:42.170Z,101875.97
2023-05-24T09:58:12.555Z,101866.97
2023-05-24T10:03:30.359Z,101838.75
2023-05-24T10:05:58.400Z,101877.06
2023-05-24T10:08:26.522Z,101871.63
2023-05-24T10:10:54.513Z,101866.19
2023-05-24T10:13:22.829Z,101871.63
2023-05-24T10:15:52.390Z,101777.34
2023-05-24T10:18:20.486Z,101863.47
2023-05-24T10:20:49.152Z,101863.47
2023-05-24T10:23:21.703Z,101878.75
2023-05-24T10:25:53.864Z,101877.91
2023-05-24T10:28:22.407Z,101879.59
2023-05-24T10:30:57.962Z,101877.72
2023-05-24T10:33:26.250Z,101876.03
2023-05-24T10:35:54.249Z,101872.28
2023-05-24T10:38:23.330Z,101868.72
2023-05-24T10:40:51.863Z,101870.41
2023-05-24T10:41:46.046Z,101877.06
2023-05-24T10:43:20.065Z,101871.25
2023-05-24T10:45:51.561Z,101870.19
2023-05-24T10:48:40.459Z,101875.63
2023-05-24T10:51:34.801Z,101868.53
2023-05-24T10:54:16.455Z,101863.09
2023-05-24T10:56:46.203Z,101871.25
2023-05-24T10:59:31.642Z,101863.09
2023-05-24T11:02:00.917Z,101859.31
2023-05-24T11:04:34.168Z,101863.09
2023-05-24T11:07:03.237Z,101862.03
2023-05-24T11:09:31.925Z,101858.28
2023-05-24T11:12:04.054Z,101857.44
2023-05-24T11:14:32.457Z,101857.44
2023-05-24T11:17:01.636Z,101855.56
2023-05-24T11:19:35.606Z,101858.28
2023-05-24T11:22:04.398Z,101857.25
2023-05-24T11:24:33.345Z,101849.09
2023-05-24T11:27:02.275Z,101852.66
2023-05-24T11:29:30.638Z,101864.56
2023-05-24T11:32:04.602Z,101857.25
2023-05-24T11:34:35.108Z,101853.69
2023-05-24T11:37:05.515Z,101851.81
2023-05-24T11:39:33.600Z,101858.09
2023-05-24T11:42:01.584Z,101858.09
2023-05-24T11:44:31.622Z,101855.13
2023-05-24T11:47:00.470Z,101859.13
2023-05-24T11:49:28.530Z,101834.97
2023-05-24T11:51:58.482Z,101855.56
2023-05-24T11:54:26.873Z,101850.13
2023-05-24T11:56:55.444Z,101844.69
2023-05-24T11:59:24.394Z,101847.41
2023-05-24T12:01:52.724Z,101848.44
2023-05-24T12:04:21.074Z,101850.13
2023-05-24T12:06:49.137Z,101741.59
2023-05-24T12:09:18.840Z,101841.97
2023-05-24T12:11:48.419Z,101848.25
2023-05-24T12:14:16.627Z,101845.72
2023-05-24T12:16:44.844Z,101840.06
2023-05-24T12:19:31.855Z,101838.19
2023-05-24T12:22:01.046Z,101836.31
2023-05-24T12:24:30.611Z,101840.72
2023-05-24T12:27:03.086Z,101840.72
2023-05-24T12:29:34.407Z,101841.34
2023-05-24T12:32:02.360Z,101831.50
2023-05-24T12:34:30.381Z,101837.78
2023-05-24T12:36:58.488Z,101834.88
2023-05-24T12:39:31.216Z,101830.28
2023-05-24T12:42:01.768Z,101830.09
2023-05-24T12:44:30.458Z,101826.72
2023-05-24T12:46:59.102Z,101837.59
2023-05-24T12:49:27.489Z,101831.97
2023-05-24T12:51:55.919Z,101831.97
2023-05-24T12:54:24.331Z,101835.53
2023-05-24T12:56:54.908Z,101834.50
2023-05-24T12:59:27.340Z,101829.06
2023-05-24T13:01:55.398Z,101825.28
2023-05-24T13:04:24.402Z,101824.25
2023-05-24T13:06:52.434Z,101832.41
2023-05-24T13:09:23.354Z,101828.00
2023-05-24T13:11:52.208Z,101828.84
2023-05-24T13:14:20.804Z,101829.88
2023-05-24T13:16:50.274Z,101840.75
2023-05-24T13:19:18.761Z,101830.94
2023-05-24T13:21:46.746Z,101835.53
2023-05-24T13:24:15.977Z,101830.94
2023-05-24T13:26:44.627Z,101834.50
2023-05-24T13:31:45.029Z,101834.50
2023-05-24T13:34:14.683Z,101827.38
2023-05-24T13:36:43.869Z,101829.06
2023-05-24T13:39:16.170Z,101819.00
2023-05-24T13:41:45.234Z,101817.13
2023-05-24T13:44:13.915Z,101820.06
2023-05-24T13:46:42.113Z,101813.56
2023-05-24T13:49:11.062Z,101817.34
2023-05-24T13:51:40.583Z,101813.56
2023-05-24T13:54:08.922Z,101828.00
2023-05-24T13:56:38.762Z,101823.63
2023-05-24T13:59:07.216Z,101819.00
2023-05-24T14:01:35.865Z,101822.56
2023-05-24T14:04:04.552Z,101822.56
2023-05-24T14:06:32.635Z,101820.69
2023-05-24T14:09:03.422Z,101813.56
2023-05-24T14:11:31.872Z,101817.97
2023-05-24T14:16:33.271Z,101818.81
2023-05-24T14:19:02.355Z,101815.25
2023-05-24T14:21:31.096Z,101813.56
2023-05-24T14:23:59.273Z,101817.97
2023-05-24T14:26:29.470Z,101813.38
2023-05-24T14:28:57.403Z,101818.81
2023-05-24T14:31:25.572Z,101816.94
2023-05-24T14:33:53.792Z,101807.91
2023-05-24T14:36:22.252Z,101807.91
2023-05-24T14:38:50.188Z,101814.19
2023-05-24T14:41:18.254Z,101812.31
2023-05-24T14:43:47.558Z,101817.78
2023-05-24T14:46:15.596Z,101817.78
2023-05-24T14:48:44.037Z,101817.78
2023-05-24T14:51:12.030Z,101817.78
2023-05-24T14:53:40.020Z,101811.28
2023-05-24T14:56:10.025Z,101804.16
2023-05-24T14:58:38.054Z,101814.00
2023-05-24T15:01:08.133Z,101802.28
2023-05-24T15:03:36.435Z,101797.69
2023-05-24T15:06:05.619Z,101805.84
2023-05-24T15:08:34.879Z,101806.88
2023-05-24T15:11:02.981Z,101803.13
2023-05-24T15:13:31.271Z,101796.78
2023-05-24T15:16:00.539Z,101809.59
2023-05-24T15:18:31.835Z,101720.47
2023-05-24T15:21:01.016Z,101819.47
2023-05-24T15:23:29.073Z,101805.19
2023-05-24T15:25:57.193Z,101815.06
2023-05-24T15:28:26.567Z,101809.59
2023-05-24T15:30:54.912Z,101809.59
2023-05-24T15:33:23.145Z,101808.56
2023-05-24T15:35:52.593Z,101811.47
2023-05-24T15:38:20.846Z,101812.31
2023-05-24T15:40:48.831Z,101806.88
2023-05-24T15:43:18.899Z,101804.16
2023-05-24T15:45:47.255Z,101800.59
2023-05-24T15:48:15.259Z,101804.16
2023-05-24T15:51:13.875Z,101808.75
2023-05-24T15:53:32.581Z,101806.22
2023-05-24T15:56:00.553Z,101806.44
2023-05-24T15:58:28.896Z,101808.56
2023-05-24T16:00:56.893Z,101800.59
2023-05-24T16:03:25.340Z,101795.16
2023-05-24T16:05:53.666Z,101808.75
2023-05-24T16:08:27.453Z,101785.53
2023-05-24T16:10:57.077Z,101798.72
2023-05-24T16:13:25.661Z,101802.28
2023-05-24T16:15:53.658Z,101801.25
2023-05-24T16:18:22.833Z,101789.28
2023-05-24T16:20:51.695Z,101794.97
2023-05-24T16:23:20.170Z,101788.69
2023-05-24T16:25:48.079Z,101784.28
2023-05-24T16:28:17.396Z,101792.25
2023-05-24T16:30:45.557Z,101794.75
2023-05-24T16:33:14.479Z,101790.38
2023-05-24T16:35:42.472Z,101787.84
2023-05-24T16:38:10.510Z,101795.16
2023-05-24T16:40:38.632Z,101790.56
2023-05-24T16:43:07.059Z,101752.72
2023-05-24T16:45:36.555Z,101787.00
2023-05-24T16:48:04.838Z,101784.47
2023-05-24T16:50:33.651Z,101776.28
2023-05-24T16:53:01.651Z,101781.97
2023-05-24T16:55:29.612Z,101788.88
2023-05-24T16:57:57.642Z,101786.34
2023-05-24T17:00:27.556Z,101790.75
2023-05-24T17:02:59.344Z,101796.19
2023-05-24T17:05:27.837Z,101796.19
2023-05-24T17:07:56.295Z,101798.06
2023-05-24T17:10:24.264Z,101805.38
2023-05-24T17:12:53.301Z,101794.50
2023-05-24T17:15:21.325Z,101798.06
2023-05-24T17:17:49.336Z,101785.53
2023-05-24T17:20:18.766Z,101789.06
2023-05-24T17:22:46.710Z,101781.97
2023-05-24T17:25:14.736Z,101795.34
2023-05-24T17:27:43.094Z,101788.25
2023-05-24T17:30:11.585Z,101788.25
2023-05-24T17:32:39.682Z,101795.34
2023-05-24T17:35:07.992Z,101790.97
2023-05-24T17:37:37.294Z,101778.59
2023-05-24T17:40:05.834Z,101787.78
2023-05-24T17:42:33.829Z,101784.69
2023-05-24T17:45:01.729Z,101783.84
2023-05-24T17:47:30.013Z,101790.13
2023-05-24T17:49:58.082Z,101792.84
2023-05-24T17:52:26.110Z,101790.97
2023-05-24T17:54:56.723Z,101798.28
2023-05-24T17:57:25.001Z,101797.44
2023-05-24T17:59:52.977Z,101786.75
2023-05-24T18:02:20.975Z,101795.56
2023-05-24T18:04:49.019Z,101796.59
2023-05-24T18:07:18.330Z,101788.44
2023-05-24T18:09:46.262Z,101793.88
2023-05-24T18:12:16.353Z,101785.91
2023-05-24T18:14:44.425Z,101803.72
2023-05-24T18:17:12.716Z,101793.03
2023-05-24T18:19:40.734Z,101791.16
2023-05-24T18:22:08.665Z,101794.06
2023-05-24T18:24:36.578Z,101793.03
2023-05-24T18:27:05.220Z,101790.50
2023-05-24T18:29:37.583Z,101796.78
2023-05-24T18:32:06.569Z,101791.75
2023-05-24T18:34:34.627Z,101802.22
2023-05-24T18:37:02.634Z,101796.78
2023-05-24T18:39:30.833Z,101798.47
2023-05-24T18:41:58.846Z,101809.53
2023-05-24T18:44:27.100Z,101809.38
2023-05-24T18:46:58.148Z,101810.59
2023-05-24T18:49:27.441Z,101804.91
2023-05-24T18:51:56.469Z,101734.06
2023-05-24T18:54:24.656Z,101774.38
2023-05-24T18:56:53.321Z,101794.53
2023-05-24T18:59:21.846Z,101822.53
2023-05-24T19:01:49.898Z,101824.41
2023-05-24T19:04:19.252Z,101835.28
2023-05-24T19:06:47.208Z,101834.44
2023-05-24T19:09:15.888Z,101830.63
2023-05-24T19:11:44.992Z,101839.88
2023-05-24T19:14:15.195Z,101804.75
2023-05-24T19:16:43.245Z,101842.81
2023-05-24T19:19:11.295Z,101800.94
2023-05-24T19:21:40.754Z,101843.66
2023-05-24T19:24:09.059Z,101856.41
2023-05-24T19:26:37.347Z,101844.69
2023-05-24T19:29:05.414Z,101834.13
2023-05-24T19:31:36.439Z,101851.16
2023-05-24T19:34:04.722Z,101852.84
2023-05-24T19:36:33.614Z,101852.00
2023-05-24T19:39:03.018Z,101851.16
2023-05-24T19:41:31.106Z,101855.56
2023-05-24T19:43:59.352Z,101857.44
2023-05-24T19:46:27.331Z,101847.34
2023-05-24T19:48:55.374Z,101858.47
2023-05-24T19:51:23.391Z,101855.31
2023-05-24T19:53:51.447Z,101852.53
2023-05-24T19:56:21.422Z,101876.47
2023-05-24T19:58:50.032Z,101864.13
2023-05-24T20:01:18.167Z,101871.03
2023-05-24T20:03:48.496Z,101868.31
2023-05-24T20:06:16.905Z,101870.19
2023-05-24T20:08:44.941Z,101875.44
2023-05-24T20:11:14.310Z,101879.19
2023-05-24T20:13:43.654Z,101874.59
2023-05-24T20:16:11.788Z,101881.91
2023-05-24T20:18:39.843Z,101879.19
2023-05-24T20:21:07.941Z,101881.91
2023-05-24T20:23:35.987Z,101886.53
2023-05-24T20:26:04.150Z,101889.25
2023-05-24T20:28:32.293Z,101882.13
2023-05-24T20:31:01.794Z,101902.00
2023-05-24T20:33:29.820Z,101890.31
2023-05-24T20:35:58.974Z,101898.47
2023-05-24T20:38:27.228Z,101896.78
2023-05-24T20:40:55.204Z,101900.34
2023-05-24T20:43:23.184Z,101892.19
2023-05-24T20:45:51.213Z,101896.31
2023-05-24T20:48:20.992Z,101906.81
2023-05-24T20:50:49.008Z,101897.63
2023-05-24T20:53:17.083Z,101899.50
2023-05-24T20:55:45.176Z,101905.97
2023-05-24T20:58:13.347Z,101894.06
2023-05-24T21:00:41.834Z,101893.22
2023-05-24T21:03:10.008Z,101902.41
2023-05-24T21:05:40.332Z,101903.25
2023-05-24T21:08:08.428Z,101904.09
2023-05-24T21:10:38.089Z,101904.09
2023-05-24T21:13:06.171Z,101898.22
2023-05-24T21:15:34.235Z,101908.69
2023-05-24T21:18:02.295Z,101909.72
2023-05-24T21:20:30.573Z,101919.75
2023-05-24T21:23:00.009Z,101921.44
2023-05-24T21:25:28.014Z,101925.19
2023-05-24T21:27:56.116Z,101921.44
2023-05-24T21:30:24.597Z,101928.78
2023-05-24T21:32:52.652Z,101935.06
2023-05-24T21:37:57.131Z,101922.47
2023-05-24T21:40:26.658Z,101928.78
2023-05-24T21:42:54.603Z,101925.19
2023-05-24T21:45:22.841Z,101923.31
2023-05-24T21:47:50.791Z,101927.91
2023-05-24T21:50:18.805Z,101923.50
2023-05-24T21:52:46.816Z,101930.84
2023-05-24T21:55:15.051Z,101934.41
2023-05-24T21:57:44.465Z,101930.84
2023-05-24T22:00:13.977Z,101933.75
2023-05-24T22:02:42.056Z,101934.63
2023-05-24T22:05:10.914Z,101931.91
2023-05-24T22:07:38.914Z,101939.22
2023-05-24T22:10:07.562Z,101942.78
2023-05-24T22:12:35.711Z,101944.66
2023-05-24T22:15:07.251Z,101941.94
2023-05-24T22:17:36.841Z,101945.69
2023-05-24T22:20:06.146Z,101943.81
2023-05-24T22:22:34.202Z,101947.56
2023-05-24T22:25:02.485Z,101942.13
2023-05-24T22:27:30.519Z,101942.97
2023-05-24T22:29:58.492Z,101947.75
2023-05-24T22:32:27.871Z,101942.28
2023-05-24T22:34:56.166Z,101946.72
2023-05-24T22:37:24.177Z,101946.91
2023-05-24T22:39:52.139Z,101943.34
2023-05-24T22:42:20.243Z,101941.66
2023-05-24T22:44:48.498Z,101938.09
2023-05-24T22:47:17.021Z,101938.94
2023-05-24T22:49:46.497Z,101935.38
2023-05-24T22:52:15.165Z,101939.97
2023-05-24T22:54:43.422Z,101939.97
2023-05-24T22:57:11.406Z,101930.97
2023-05-24T22:59:39.325Z,101935.38
2023-05-24T23:02:07.393Z,101933.69
2023-05-24T23:04:35.724Z,101941.84
2023-05-24T23:07:05.400Z,101944.56
2023-05-24T23:09:35.348Z,101942.88
2023-05-24T23:12:07.611Z,101951.88
2023-05-24T23:14:38.385Z,101944.75
2023-05-24T23:17:06.807Z,101941.19
2023-05-24T23:19:34.810Z,101946.63
2023-05-24T23:22:04.498Z,101945.81
2023-05-24T23:24:34.444Z,101948.53
2023-05-24T23:27:02.440Z,101947.69
2023-05-24T23:29:30.429Z,101950.41
2023-05-24T23:31:58.359Z,101956.69
2023-05-24T23:34:26.567Z,101957.72
2023-05-24T23:36:54.602Z,101952.28
2023-05-24T23:39:23.947Z,101946.84
2023-05-24T23:41:51.899Z,101949.56
2023-05-24T23:44:23.487Z,101947.88
2023-05-24T23:46:51.531Z,101951.44
2023-05-24T23:49:19.669Z,101956.88
2023-05-24T23:51:47.679Z,101956.88
2023-05-24T23:54:15.940Z,101956.88
2023-05-24T23:56:45.259Z,101956.22
2023-05-24T23:59:13.296Z,101964.19
